sensor_id;sensor_type;location;lat;lon;timestamp;temperature;humidity
20574;DHT22;10445;50.216;7.912;2023-02-28T00:02:18;-1.50;35.10
20574;DHT22;10445;50.216;7.912;2023-02-28T00:05:08;-1.60;36.00
20574;DHT22;10445;50.216;7.912;2023-02-28T00:07:57;-1.50;36.60
20574;DHT22;10445;50.216;7.912;2023-02-28T00:10:46;-1.60;36.60
20574;DHT22;10445;50.216;7.912;2023-02-28T00:13:36;-1.60;37.80
20574;DHT22;10445;50.216;7.912;2023-02-28T00:16:26;-1.60;37.80
20574;DHT22;10445;50.216;7.912;2023-02-28T00:19:15;-1.70;38.30
20574;DHT22;10445;50.216;7.912;2023-02-28T00:22:03;-1.70;38.50
20574;DHT22;10445;50.216;7.912;2023-02-28T00:24:52;-1.70;39.30
20574;DHT22;10445;50.216;7.912;2023-02-28T00:27:41;-1.70;40.00
20574;DHT22;10445;50.216;7.912;2023-02-28T00:30:30;-1.80;41.10
20574;DHT22;10445;50.216;7.912;2023-02-28T00:33:20;-1.80;41.40
20574;DHT22;10445;50.216;7.912;2023-02-28T00:36:10;-1.80;41.70
20574;DHT22;10445;50.216;7.912;2023-02-28T00:38:59;-1.90;42.80
20574;DHT22;10445;50.216;7.912;2023-02-28T00:41:48;-1.90;43.40
20574;DHT22;10445;50.216;7.912;2023-02-28T00:44:37;-1.90;44.50
20574;DHT22;10445;50.216;7.912;2023-02-28T00:47:25;-2.00;46.00
20574;DHT22;10445;50.216;7.912;2023-02-28T00:50:17;-1.90;49.80
20574;DHT22;10445;50.216;7.912;2023-02-28T00:53:06;-2.00;50.60
20574;DHT22;10445;50.216;7.912;2023-02-28T00:55:54;-2.00;53.10
20574;DHT22;10445;50.216;7.912;2023-02-28T00:58:43;-2.00;57.30
20574;DHT22;10445;50.216;7.912;2023-02-28T01:01:32;-2.10;59.30
20574;DHT22;10445;50.216;7.912;2023-02-28T01:04:21;-2.10;61.80
20574;DHT22;10445;50.216;7.912;2023-02-28T01:07:11;-2.10;62.90
20574;DHT22;10445;50.216;7.912;2023-02-28T01:10:01;-2.20;66.00
20574;DHT22;10445;50.216;7.912;2023-02-28T01:12:50;-2.20;67.40
20574;DHT22;10445;50.216;7.912;2023-02-28T01:15:42;-2.20;67.40
20574;DHT22;10445;50.216;7.912;2023-02-28T01:18:31;-2.20;66.70
20574;DHT22;10445;50.216;7.912;2023-02-28T01:21:21;-2.20;66.80
20574;DHT22;10445;50.216;7.912;2023-02-28T01:24:11;-2.30;68.50
20574;DHT22;10445;50.216;7.912;2023-02-28T01:27:00;-2.30;68.90
20574;DHT22;10445;50.216;7.912;2023-02-28T01:29:50;-2.30;69.80
20574;DHT22;10445;50.216;7.912;2023-02-28T01:32:38;-2.30;69.90
20574;DHT22;10445;50.216;7.912;2023-02-28T01:35:27;-2.30;70.30
20574;DHT22;10445;50.216;7.912;2023-02-28T01:38:16;-2.40;69.60
20574;DHT22;10445;50.216;7.912;2023-02-28T01:41:16;-2.40;69.40
20574;DHT22;10445;50.216;7.912;2023-02-28T01:44:06;-2.40;69.70
20574;DHT22;10445;50.216;7.912;2023-02-28T01:46:55;-2.40;71.20
20574;DHT22;10445;50.216;7.912;2023-02-28T01:49:44;-2.50;71.70
20574;DHT22;10445;50.216;7.912;2023-02-28T01:52:34;-2.50;72.20
20574;DHT22;10445;50.216;7.912;2023-02-28T01:55:24;-2.50;73.20
20574;DHT22;10445;50.216;7.912;2023-02-28T01:58:17;-2.50;73.30
20574;DHT22;10445;50.216;7.912;2023-02-28T02:01:06;-2.50;74.00
20574;DHT22;10445;50.216;7.912;2023-02-28T02:03:56;-2.50;74.90
20574;DHT22;10445;50.216;7.912;2023-02-28T02:06:46;-2.60;74.90
20574;DHT22;10445;50.216;7.912;2023-02-28T02:09:35;-2.60;75.90
20574;DHT22;10445;50.216;7.912;2023-02-28T02:12:27;-2.60;76.50
20574;DHT22;10445;50.216;7.912;2023-02-28T02:15:26;-2.60;77.00
20574;DHT22;10445;50.216;7.912;2023-02-28T02:18:26;-2.60;78.30
20574;DHT22;10445;50.216;7.912;2023-02-28T02:24:55;-2.70;78.50
20574;DHT22;10445;50.216;7.912;2023-02-28T02:31:58;-2.70;78.20
20574;DHT22;10445;50.216;7.912;2023-02-28T02:34:59;-2.70;78.50
20574;DHT22;10445;50.216;7.912;2023-02-28T02:38:00;-2.80;79.20
20574;DHT22;10445;50.216;7.912;2023-02-28T02:41:04;-2.80;80.30
20574;DHT22;10445;50.216;7.912;2023-02-28T02:43:58;-2.80;80.10
20574;DHT22;10445;50.216;7.912;2023-02-28T02:46:52;-2.80;80.20
20574;DHT22;10445;50.216;7.912;2023-02-28T02:49:44;-2.80;80.30
20574;DHT22;10445;50.216;7.912;2023-02-28T02:52:40;-2.90;79.90
20574;DHT22;10445;50.216;7.912;2023-02-28T02:55:31;-2.90;80.00
20574;DHT22;10445;50.216;7.912;2023-02-28T02:58:26;-2.90;79.80
20574;DHT22;10445;50.216;7.912;2023-02-28T03:01:18;-3.00;80.00
20574;DHT22;10445;50.216;7.912;2023-02-28T03:04:18;-3.00;80.00
20574;DHT22;10445;50.216;7.912;2023-02-28T03:07:07;-3.00;79.90
20574;DHT22;10445;50.216;7.912;2023-02-28T03:09:57;-3.00;80.50
20574;DHT22;10445;50.216;7.912;2023-02-28T03:12:51;-3.00;80.70
20574;DHT22;10445;50.216;7.912;2023-02-28T03:15:54;-3.00;80.80
20574;DHT22;10445;50.216;7.912;2023-02-28T03:18:53;-3.10;80.70
20574;DHT22;10445;50.216;7.912;2023-02-28T03:21:49;-3.10;80.40
20574;DHT22;10445;50.216;7.912;2023-02-28T03:24:48;-3.00;80.40
20574;DHT22;10445;50.216;7.912;2023-02-28T03:27:41;-3.10;80.00
20574;DHT22;10445;50.216;7.912;2023-02-28T03:30:36;-3.10;79.60
20574;DHT22;10445;50.216;7.912;2023-02-28T03:33:29;-3.10;79.20
20574;DHT22;10445;50.216;7.912;2023-02-28T03:36:20;-3.10;79.90
20574;DHT22;10445;50.216;7.912;2023-02-28T03:39:14;-3.20;79.60
20574;DHT22;10445;50.216;7.912;2023-02-28T03:42:08;-3.20;80.10
20574;DHT22;10445;50.216;7.912;2023-02-28T03:45:02;-3.20;80.00
20574;DHT22;10445;50.216;7.912;2023-02-28T03:47:53;-3.20;80.50
20574;DHT22;10445;50.216;7.912;2023-02-28T03:50:44;-3.20;80.50
20574;DHT22;10445;50.216;7.912;2023-02-28T03:53:35;-3.20;80.60
20574;DHT22;10445;50.216;7.912;2023-02-28T03:56:31;-3.30;80.30
20574;DHT22;10445;50.216;7.912;2023-02-28T03:59:26;-3.30;79.90
20574;DHT22;10445;50.216;7.912;2023-02-28T04:02:17;-3.40;79.60
20574;DHT22;10445;50.216;7.912;2023-02-28T04:05:06;-3.40;80.30
20574;DHT22;10445;50.216;7.912;2023-02-28T04:08:04;-3.40;81.00
20574;DHT22;10445;50.216;7.912;2023-02-28T04:10:58;-3.40;81.40
20574;DHT22;10445;50.216;7.912;2023-02-28T04:13:48;-3.40;81.40
20574;DHT22;10445;50.216;7.912;2023-02-28T04:16:38;-3.50;81.00
20574;DHT22;10445;50.216;7.912;2023-02-28T04:19:28;-3.50;81.10
20574;DHT22;10445;50.216;7.912;2023-02-28T04:22:17;-3.50;80.80
20574;DHT22;10445;50.216;7.912;2023-02-28T04:25:07;-3.50;80.50
20574;DHT22;10445;50.216;7.912;2023-02-28T04:27:55;-3.50;79.70
20574;DHT22;10445;50.216;7.912;2023-02-28T04:30:44;-3.60;78.90
20574;DHT22;10445;50.216;7.912;2023-02-28T04:33:33;-3.60;78.60
20574;DHT22;10445;50.216;7.912;2023-02-28T04:36:23;-3.60;79.40
20574;DHT22;10445;50.216;7.912;2023-02-28T04:39:11;-3.60;79.50
20574;DHT22;10445;50.216;7.912;2023-02-28T04:42:00;-3.70;79.90
20574;DHT22;10445;50.216;7.912;2023-02-28T04:44:49;-3.70;80.30
20574;DHT22;10445;50.216;7.912;2023-02-28T04:47:37;-3.60;80.20
20574;DHT22;10445;50.216;7.912;2023-02-28T04:50:26;-3.70;80.70
20574;DHT22;10445;50.216;7.912;2023-02-28T04:53:16;-3.70;80.60
20574;DHT22;10445;50.216;7.912;2023-02-28T04:56:06;-3.70;80.10
20574;DHT22;10445;50.216;7.912;2023-02-28T04:58:55;-3.70;80.20
20574;DHT22;10445;50.216;7.912;2023-02-28T05:01:46;-3.70;80.20
20574;DHT22;10445;50.216;7.912;2023-02-28T05:04:36;-3.80;80.00
20574;DHT22;10445;50.216;7.912;2023-02-28T05:07:24;-3.80;79.70
20574;DHT22;10445;50.216;7.912;2023-02-28T05:10:14;-3.80;79.60
20574;DHT22;10445;50.216;7.912;2023-02-28T05:13:03;-3.80;79.40
20574;DHT22;10445;50.216;7.912;2023-02-28T05:15:52;-3.80;79.10
20574;DHT22;10445;50.216;7.912;2023-02-28T05:18:41;-3.80;78.40
20574;DHT22;10445;50.216;7.912;2023-02-28T05:21:31;-3.90;78.40
20574;DHT22;10445;50.216;7.912;2023-02-28T05:24:20;-3.90;78.40
20574;DHT22;10445;50.216;7.912;2023-02-28T05:27:12;-3.90;78.40
20574;DHT22;10445;50.216;7.912;2023-02-28T05:30:00;-3.90;78.20
20574;DHT22;10445;50.216;7.912;2023-02-28T05:32:51;-4.00;78.40
20574;DHT22;10445;50.216;7.912;2023-02-28T05:35:41;-3.90;79.60
20574;DHT22;10445;50.216;7.912;2023-02-28T05:38:29;-4.00;79.80
20574;DHT22;10445;50.216;7.912;2023-02-28T05:41:19;-4.00;79.70
20574;DHT22;10445;50.216;7.912;2023-02-28T05:44:10;-4.00;79.30
20574;DHT22;10445;50.216;7.912;2023-02-28T05:46:59;-4.00;78.40
20574;DHT22;10445;50.216;7.912;2023-02-28T05:49:48;-4.10;78.20
20574;DHT22;10445;50.216;7.912;2023-02-28T05:52:36;-4.10;78.30
20574;DHT22;10445;50.216;7.912;2023-02-28T05:55:25;-4.10;78.50
20574;DHT22;10445;50.216;7.912;2023-02-28T05:58:14;-4.10;78.90
20574;DHT22;10445;50.216;7.912;2023-02-28T06:01:23;-4.10;79.20
20574;DHT22;10445;50.216;7.912;2023-02-28T06:04:12;-4.10;79.40
20574;DHT22;10445;50.216;7.912;2023-02-28T06:07:17;-4.00;79.50
20574;DHT22;10445;50.216;7.912;2023-02-28T06:10:07;-4.10;79.20
20574;DHT22;10445;50.216;7.912;2023-02-28T06:12:55;-4.00;79.20
20574;DHT22;10445;50.216;7.912;2023-02-28T06:15:47;-4.00;79.90
20574;DHT22;10445;50.216;7.912;2023-02-28T06:18:37;-4.00;80.30
20574;DHT22;10445;50.216;7.912;2023-02-28T06:21:26;-3.90;80.50
20574;DHT22;10445;50.216;7.912;2023-02-28T06:24:16;-3.80;80.60
20574;DHT22;10445;50.216;7.912;2023-02-28T06:27:05;-3.70;80.60
20574;DHT22;10445;50.216;7.912;2023-02-28T06:29:54;-3.60;79.90
20574;DHT22;10445;50.216;7.912;2023-02-28T06:32:43;-3.60;80.10
20574;DHT22;10445;50.216;7.912;2023-02-28T06:35:33;-3.50;80.00
20574;DHT22;10445;50.216;7.912;2023-02-28T06:38:21;-3.50;79.00
20574;DHT22;10445;50.216;7.912;2023-02-28T06:41:10;-3.50;78.40
20574;DHT22;10445;50.216;7.912;2023-02-28T06:43:59;-3.40;79.10
20574;DHT22;10445;50.216;7.912;2023-02-28T06:46:48;-2.90;82.30
20574;DHT22;10445;50.216;7.912;2023-02-28T06:49:37;-2.40;76.80
20574;DHT22;10445;50.216;7.912;2023-02-28T06:52:27;-2.10;68.90
20574;DHT22;10445;50.216;7.912;2023-02-28T06:55:16;-1.80;59.80
20574;DHT22;10445;50.216;7.912;2023-02-28T06:58:05;-1.60;54.40
20574;DHT22;10445;50.216;7.912;2023-02-28T07:01:02;-1.40;53.90
20574;DHT22;10445;50.216;7.912;2023-02-28T07:03:51;-1.00;49.80
20574;DHT22;10445;50.216;7.912;2023-02-28T07:06:40;-0.70;43.50
20574;DHT22;10445;50.216;7.912;2023-02-28T07:09:30;-0.50;38.90
20574;DHT22;10445;50.216;7.912;2023-02-28T07:12:19;-0.40;36.00
20574;DHT22;10445;50.216;7.912;2023-02-28T07:15:09;0.00;31.00
20574;DHT22;10445;50.216;7.912;2023-02-28T07:17:57;0.40;30.50
20574;DHT22;10445;50.216;7.912;2023-02-28T07:20:46;0.90;19.40
20574;DHT22;10445;50.216;7.912;2023-02-28T07:23:35;1.00;17.10
20574;DHT22;10445;50.216;7.912;2023-02-28T07:26:26;1.40;17.30
20574;DHT22;10445;50.216;7.912;2023-02-28T07:29:15;2.00;11.80
20574;DHT22;10445;50.216;7.912;2023-02-28T07:32:04;1.70;9.00
20574;DHT22;10445;50.216;7.912;2023-02-28T07:34:52;1.50;11.20
20574;DHT22;10445;50.216;7.912;2023-02-28T07:37:41;1.40;12.10
20574;DHT22;10445;50.216;7.912;2023-02-28T07:40:30;1.70;13.30
20574;DHT22;10445;50.216;7.912;2023-02-28T07:43:20;2.30;10.10
20574;DHT22;10445;50.216;7.912;2023-02-28T07:46:11;3.30;1.00
20574;DHT22;10445;50.216;7.912;2023-02-28T07:48:59;3.80;1.00
20574;DHT22;10445;50.216;7.912;2023-02-28T07:51:50;3.90;1.00
20574;DHT22;10445;50.216;7.912;2023-02-28T07:54:38;3.20;1.00
20574;DHT22;10445;50.216;7.912;2023-02-28T07:57:27;2.30;1.00
20574;DHT22;10445;50.216;7.912;2023-02-28T08:00:18;1.60;1.00
20574;DHT22;10445;50.216;7.912;2023-02-28T08:03:07;1.30;2.10
20574;DHT22;10445;50.216;7.912;2023-02-28T08:05:56;0.90;2.90
20574;DHT22;10445;50.216;7.912;2023-02-28T08:08:45;0.70;6.10
20574;DHT22;10445;50.216;7.912;2023-02-28T08:11:34;0.70;9.10
20574;DHT22;10445;50.216;7.912;2023-02-28T08:14:23;0.50;3.80
20574;DHT22;10445;50.216;7.912;2023-02-28T08:17:13;0.30;4.70
20574;DHT22;10445;50.216;7.912;2023-02-28T08:20:02;0.30;7.10
20574;DHT22;10445;50.216;7.912;2023-02-28T08:22:51;0.20;8.60
20574;DHT22;10445;50.216;7.912;2023-02-28T08:25:39;0.40;7.70
20574;DHT22;10445;50.216;7.912;2023-02-28T08:28:28;0.50;7.60
20574;DHT22;10445;50.216;7.912;2023-02-28T08:31:17;0.60;8.10
20574;DHT22;10445;50.216;7.912;2023-02-28T08:34:09;0.80;6.80
20574;DHT22;10445;50.216;7.912;2023-02-28T08:36:57;0.90;5.30
20574;DHT22;10445;50.216;7.912;2023-02-28T08:39:46;0.80;4.20
20574;DHT22;10445;50.216;7.912;2023-02-28T08:42:35;0.80;6.20
20574;DHT22;10445;50.216;7.912;2023-02-28T08:45:24;0.70;4.10
20574;DHT22;10445;50.216;7.912;2023-02-28T08:48:13;0.80;5.70
20574;DHT22;10445;50.216;7.912;2023-02-28T08:51:07;0.80;3.00
20574;DHT22;10445;50.216;7.912;2023-02-28T08:53:59;0.70;3.70
20574;DHT22;10445;50.216;7.912;2023-02-28T08:56:48;0.80;2.40
20574;DHT22;10445;50.216;7.912;2023-02-28T08:59:36;1.00;1.60
20574;DHT22;10445;50.216;7.912;2023-02-28T09:02:25;1.20;1.00
20574;DHT22;10445;50.216;7.912;2023-02-28T09:05:14;2.10;1.00
20574;DHT22;10445;50.216;7.912;2023-02-28T09:08:04;2.60;1.00
20574;DHT22;10445;50.216;7.912;2023-02-28T09:10:53;2.90;1.00
20574;DHT22;10445;50.216;7.912;2023-02-28T09:13:44;2.70;1.00
20574;DHT22;10445;50.216;7.912;2023-02-28T09:16:34;3.00;1.00
20574;DHT22;10445;50.216;7.912;2023-02-28T09:19:23;3.10;1.00
20574;DHT22;10445;50.216;7.912;2023-02-28T09:22:12;2.80;1.00
20574;DHT22;10445;50.216;7.912;2023-02-28T09:25:02;2.20;1.00
20574;DHT22;10445;50.216;7.912;2023-02-28T09:27:51;2.30;1.00
20574;DHT22;10445;50.216;7.912;2023-02-28T09:30:40;2.30;1.00
20574;DHT22;10445;50.216;7.912;2023-02-28T09:33:28;2.50;1.00
20574;DHT22;10445;50.216;7.912;2023-02-28T09:36:18;2.50;1.00
20574;DHT22;10445;50.216;7.912;2023-02-28T09:39:08;2.60;1.00
20574;DHT22;10445;50.216;7.912;2023-02-28T09:41:58;2.40;1.00
20574;DHT22;10445;50.216;7.912;2023-02-28T09:44:47;2.00;1.00
20574;DHT22;10445;50.216;7.912;2023-02-28T09:47:39;2.10;1.00
20574;DHT22;10445;50.216;7.912;2023-02-28T09:50:32;2.30;1.00
20574;DHT22;10445;50.216;7.912;2023-02-28T09:53:26;2.30;1.00
20574;DHT22;10445;50.216;7.912;2023-02-28T09:56:22;2.40;1.00
20574;DHT22;10445;50.216;7.912;2023-02-28T09:59:25;2.40;1.00
20574;DHT22;10445;50.216;7.912;2023-02-28T10:05:41;2.80;1.00
20574;DHT22;10445;50.216;7.912;2023-02-28T10:08:36;2.80;1.00
20574;DHT22;10445;50.216;7.912;2023-02-28T10:11:29;1.90;1.00
20574;DHT22;10445;50.216;7.912;2023-02-28T10:14:24;2.50;1.00
20574;DHT22;10445;50.216;7.912;2023-02-28T10:17:17;3.50;1.00
20574;DHT22;10445;50.216;7.912;2023-02-28T10:20:12;4.50;1.00
20574;DHT22;10445;50.216;7.912;2023-02-28T10:23:09;4.10;1.00
20574;DHT22;10445;50.216;7.912;2023-02-28T10:26:01;3.60;1.00
20574;DHT22;10445;50.216;7.912;2023-02-28T10:28:53;3.10;1.00
20574;DHT22;10445;50.216;7.912;2023-02-28T10:31:44;3.00;1.00
20574;DHT22;10445;50.216;7.912;2023-02-28T10:34:32;2.30;1.00
20574;DHT22;10445;50.216;7.912;2023-02-28T10:37:21;1.90;1.00
20574;DHT22;10445;50.216;7.912;2023-02-28T10:40:27;1.80;1.00
20574;DHT22;10445;50.216;7.912;2023-02-28T10:43:21;1.70;1.00
20574;DHT22;10445;50.216;7.912;2023-02-28T10:46:14;1.80;1.00
20574;DHT22;10445;50.216;7.912;2023-02-28T10:49:19;1.90;1.00
20574;DHT22;10445;50.216;7.912;2023-02-28T10:52:09;2.00;1.00
20574;DHT22;10445;50.216;7.912;2023-02-28T10:55:14;2.20;1.00
20574;DHT22;10445;50.216;7.912;2023-02-28T10:58:18;2.50;1.00
20574;DHT22;10445;50.216;7.912;2023-02-28T11:01:13;2.40;1.00
20574;DHT22;10445;50.216;7.912;2023-02-28T11:04:03;2.60;1.00
20574;DHT22;10445;50.216;7.912;2023-02-28T11:06:59;2.90;1.00
20574;DHT22;10445;50.216;7.912;2023-02-28T11:09:49;2.70;1.00
20574;DHT22;10445;50.216;7.912;2023-02-28T11:12:39;2.30;1.00
20574;DHT22;10445;50.216;7.912;2023-02-28T11:15:39;2.00;1.00
20574;DHT22;10445;50.216;7.912;2023-02-28T11:18:29;2.10;1.00
20574;DHT22;10445;50.216;7.912;2023-02-28T11:21:22;2.10;1.00
20574;DHT22;10445;50.216;7.912;2023-02-28T11:24:23;2.10;1.00
20574;DHT22;10445;50.216;7.912;2023-02-28T11:27:25;2.00;1.00
20574;DHT22;10445;50.216;7.912;2023-02-28T11:30:30;1.90;1.00
20574;DHT22;10445;50.216;7.912;2023-02-28T11:33:26;2.50;1.00
20574;DHT22;10445;50.216;7.912;2023-02-28T11:36:19;2.60;1.00
20574;DHT22;10445;50.216;7.912;2023-02-28T11:39:11;2.30;1.00
20574;DHT22;10445;50.216;7.912;2023-02-28T11:45:26;3.00;1.00
20574;DHT22;10445;50.216;7.912;2023-02-28T11:48:22;3.10;1.00
20574;DHT22;10445;50.216;7.912;2023-02-28T11:51:17;3.20;1.00
20574;DHT22;10445;50.216;7.912;2023-02-28T11:54:23;3.80;1.00
20574;DHT22;10445;50.216;7.912;2023-02-28T11:57:31;3.90;1.00
20574;DHT22;10445;50.216;7.912;2023-02-28T12:00:35;3.50;1.00
20574;DHT22;10445;50.216;7.912;2023-02-28T12:03:30;3.50;1.00
20574;DHT22;10445;50.216;7.912;2023-02-28T12:06:24;3.60;1.00
20574;DHT22;10445;50.216;7.912;2023-02-28T12:09:27;3.40;1.00
20574;DHT22;10445;50.216;7.912;2023-02-28T12:12:32;3.30;1.00
20574;DHT22;10445;50.216;7.912;2023-02-28T12:15:32;3.30;1.00
20574;DHT22;10445;50.216;7.912;2023-02-28T12:18:39;3.50;1.00
20574;DHT22;10445;50.216;7.912;2023-02-28T12:21:38;4.50;1.00
20574;DHT22;10445;50.216;7.912;2023-02-28T12:28:02;5.30;1.00
20574;DHT22;10445;50.216;7.912;2023-02-28T12:30:56;5.50;1.00
20574;DHT22;10445;50.216;7.912;2023-02-28T12:33:47;5.40;1.00
20574;DHT22;10445;50.216;7.912;2023-02-28T12:36:39;5.40;1.00
20574;DHT22;10445;50.216;7.912;2023-02-28T12:39:32;5.50;1.00
20574;DHT22;10445;50.216;7.912;2023-02-28T12:42:40;5.40;1.00
20574;DHT22;10445;50.216;7.912;2023-02-28T12:45:40;5.40;1.00
20574;DHT22;10445;50.216;7.912;2023-02-28T12:48:31;4.90;1.00
20574;DHT22;10445;50.216;7.912;2023-02-28T12:51:25;4.90;1.00
20574;DHT22;10445;50.216;7.912;2023-02-28T12:54:20;4.90;1.00
20574;DHT22;10445;50.216;7.912;2023-02-28T12:57:15;4.70;1.00
20574;DHT22;10445;50.216;7.912;2023-02-28T13:00:11;4.50;1.00
20574;DHT22;10445;50.216;7.912;2023-02-28T13:03:29;4.20;1.00
20574;DHT22;10445;50.216;7.912;2023-02-28T13:06:33;4.30;1.00
20574;DHT22;10445;50.216;7.912;2023-02-28T13:09:30;4.30;1.00
20574;DHT22;10445;50.216;7.912;2023-02-28T13:12:18;4.20;1.00
20574;DHT22;10445;50.216;7.912;2023-02-28T13:15:17;4.10;1.00
20574;DHT22;10445;50.216;7.912;2023-02-28T13:18:31;3.60;1.00
20574;DHT22;10445;50.216;7.912;2023-02-28T13:21:26;3.80;1.00
20574;DHT22;10445;50.216;7.912;2023-02-28T13:24:41;4.00;1.00
20574;DHT22;10445;50.216;7.912;2023-02-28T13:27:35;5.00;1.00
20574;DHT22;10445;50.216;7.912;2023-02-28T13:31:02;5.50;1.00
20574;DHT22;10445;50.216;7.912;2023-02-28T13:34:18;5.30;1.00
20574;DHT22;10445;50.216;7.912;2023-02-28T13:37:33;5.50;1.00
20574;DHT22;10445;50.216;7.912;2023-02-28T13:40:33;5.80;1.00
20574;DHT22;10445;50.216;7.912;2023-02-28T13:44:01;5.30;1.00
20574;DHT22;10445;50.216;7.912;2023-02-28T13:47:21;5.70;1.00
20574;DHT22;10445;50.216;7.912;2023-02-28T13:50:22;5.90;1.00
20574;DHT22;10445;50.216;7.912;2023-02-28T13:55:55;7.40;1.00
20574;DHT22;10445;50.216;7.912;2023-02-28T13:58:54;8.30;1.00
20574;DHT22;10445;50.216;7.912;2023-02-28T14:02:01;8.50;1.00
20574;DHT22;10445;50.216;7.912;2023-02-28T14:05:02;7.70;1.00
20574;DHT22;10445;50.216;7.912;2023-02-28T14:07:57;6.80;1.00
20574;DHT22;10445;50.216;7.912;2023-02-28T14:10:47;5.50;1.00
20574;DHT22;10445;50.216;7.912;2023-02-28T14:13:41;4.80;1.00
20574;DHT22;10445;50.216;7.912;2023-02-28T14:16:46;4.40;1.00
20574;DHT22;10445;50.216;7.912;2023-02-28T14:19:38;4.10;1.00
20574;DHT22;10445;50.216;7.912;2023-02-28T14:22:46;3.60;1.00
20574;DHT22;10445;50.216;7.912;2023-02-28T14:25:47;3.10;1.00
20574;DHT22;10445;50.216;7.912;2023-02-28T14:28:56;2.80;1.00
20574;DHT22;10445;50.216;7.912;2023-02-28T14:31:57;2.80;1.00
20574;DHT22;10445;50.216;7.912;2023-02-28T14:34:51;2.70;1.00
20574;DHT22;10445;50.216;7.912;2023-02-28T14:37:42;2.50;1.00
20574;DHT22;10445;50.216;7.912;2023-02-28T14:40:33;2.30;1.00
20574;DHT22;10445;50.216;7.912;2023-02-28T14:43:26;2.20;1.00
20574;DHT22;10445;50.216;7.912;2023-02-28T14:46:17;2.20;1.00
20574;DHT22;10445;50.216;7.912;2023-02-28T14:49:11;2.10;1.00
20574;DHT22;10445;50.216;7.912;2023-02-28T14:52:07;2.20;1.00
20574;DHT22;10445;50.216;7.912;2023-02-28T14:54:59;2.20;1.00
20574;DHT22;10445;50.216;7.912;2023-02-28T14:57:53;2.00;1.00
20574;DHT22;10445;50.216;7.912;2023-02-28T15:00:59;2.00;1.00
20574;DHT22;10445;50.216;7.912;2023-02-28T15:04:06;1.90;1.00
20574;DHT22;10445;50.216;7.912;2023-02-28T15:07:08;1.80;1.00
20574;DHT22;10445;50.216;7.912;2023-02-28T15:10:13;1.80;1.00
20574;DHT22;10445;50.216;7.912;2023-02-28T15:13:05;1.80;1.00
20574;DHT22;10445;50.216;7.912;2023-02-28T15:15:56;1.70;1.00
20574;DHT22;10445;50.216;7.912;2023-02-28T15:18:52;1.70;1.00
20574;DHT22;10445;50.216;7.912;2023-02-28T15:21:43;1.70;1.00
20574;DHT22;10445;50.216;7.912;2023-02-28T15:24:37;1.70;1.00
20574;DHT22;10445;50.216;7.912;2023-02-28T15:27:30;1.70;1.00
20574;DHT22;10445;50.216;7.912;2023-02-28T15:30:23;1.80;1.00
20574;DHT22;10445;50.216;7.912;2023-02-28T15:33:19;1.80;1.00
20574;DHT22;10445;50.216;7.912;2023-02-28T15:36:14;1.70;1.00
20574;DHT22;10445;50.216;7.912;2023-02-28T15:39:19;1.70;1.00
20574;DHT22;10445;50.216;7.912;2023-02-28T15:42:11;1.70;1.00
20574;DHT22;10445;50.216;7.912;2023-02-28T15:45:27;1.60;1.00
20574;DHT22;10445;50.216;7.912;2023-02-28T15:48:34;1.60;1.00
20574;DHT22;10445;50.216;7.912;2023-02-28T15:51:30;1.60;1.00
20574;DHT22;10445;50.216;7.912;2023-02-28T15:54:24;1.60;1.00
20574;DHT22;10445;50.216;7.912;2023-02-28T15:57:18;1.50;1.00
20574;DHT22;10445;50.216;7.912;2023-02-28T16:00:12;1.50;1.00
20574;DHT22;10445;50.216;7.912;2023-02-28T16:03:01;1.50;1.00
20574;DHT22;10445;50.216;7.912;2023-02-28T16:06:36;1.50;1.00
20574;DHT22;10445;50.216;7.912;2023-02-28T16:09:25;1.50;1.00
20574;DHT22;10445;50.216;7.912;2023-02-28T16:12:14;1.50;1.00
20574;DHT22;10445;50.216;7.912;2023-02-28T16:15:07;1.40;1.00
20574;DHT22;10445;50.216;7.912;2023-02-28T16:17:57;1.40;1.00
20574;DHT22;10445;50.216;7.912;2023-02-28T16:20:46;1.40;1.00
20574;DHT22;10445;50.216;7.912;2023-02-28T16:23:36;1.40;1.00
20574;DHT22;10445;50.216;7.912;2023-02-28T16:26:26;1.40;1.00
20574;DHT22;10445;50.216;7.912;2023-02-28T16:29:22;1.30;1.00
20574;DHT22;10445;50.216;7.912;2023-02-28T16:32:14;1.30;1.00
20574;DHT22;10445;50.216;7.912;2023-02-28T16:35:05;1.30;1.00
20574;DHT22;10445;50.216;7.912;2023-02-28T16:37:54;1.20;1.00
20574;DHT22;10445;50.216;7.912;2023-02-28T16:40:44;1.20;1.00
20574;DHT22;10445;50.216;7.912;2023-02-28T16:43:33;1.10;1.00
20574;DHT22;10445;50.216;7.912;2023-02-28T16:46:24;1.10;1.00
20574;DHT22;10445;50.216;7.912;2023-02-28T16:49:13;1.10;1.00
20574;DHT22;10445;50.216;7.912;2023-02-28T16:52:02;1.00;1.00
20574;DHT22;10445;50.216;7.912;2023-02-28T16:54:51;1.00;1.00
20574;DHT22;10445;50.216;7.912;2023-02-28T16:57:43;1.00;1.00
20574;DHT22;10445;50.216;7.912;2023-02-28T17:00:33;0.90;1.00
20574;DHT22;10445;50.216;7.912;2023-02-28T17:03:24;0.80;1.00
20574;DHT22;10445;50.216;7.912;2023-02-28T17:06:22;0.80;1.00
20574;DHT22;10445;50.216;7.912;2023-02-28T17:09:16;0.70;1.00
20574;DHT22;10445;50.216;7.912;2023-02-28T17:12:05;0.60;1.00
20574;DHT22;10445;50.216;7.912;2023-02-28T17:14:56;0.50;1.00
20574;DHT22;10445;50.216;7.912;2023-02-28T17:17:45;0.40;1.00
20574;DHT22;10445;50.216;7.912;2023-02-28T17:20:34;0.40;1.00
20574;DHT22;10445;50.216;7.912;2023-02-28T17:23:23;0.30;1.00
20574;DHT22;10445;50.216;7.912;2023-02-28T17:26:13;0.20;1.00
20574;DHT22;10445;50.216;7.912;2023-02-28T17:29:06;0.20;1.00
20574;DHT22;10445;50.216;7.912;2023-02-28T17:32:00;0.10;1.00
20574;DHT22;10445;50.216;7.912;2023-02-28T17:35:04;0.10;1.00
20574;DHT22;10445;50.216;7.912;2023-02-28T17:37:53;0.10;1.00
20574;DHT22;10445;50.216;7.912;2023-02-28T17:40:41;0.00;1.00
20574;DHT22;10445;50.216;7.912;2023-02-28T17:43:30;0.00;1.00
20574;DHT22;10445;50.216;7.912;2023-02-28T17:46:21;-0.10;1.00
20574;DHT22;10445;50.216;7.912;2023-02-28T17:49:12;-0.10;1.00
20574;DHT22;10445;50.216;7.912;2023-02-28T17:52:00;-0.20;1.00
20574;DHT22;10445;50.216;7.912;2023-02-28T17:54:49;-0.10;1.00
20574;DHT22;10445;50.216;7.912;2023-02-28T17:57:38;-0.20;1.00
20574;DHT22;10445;50.216;7.912;2023-02-28T18:00:29;-0.20;1.00
20574;DHT22;10445;50.216;7.912;2023-02-28T18:03:19;-0.20;1.00
20574;DHT22;10445;50.216;7.912;2023-02-28T18:06:14;-0.30;1.00
20574;DHT22;10445;50.216;7.912;2023-02-28T18:09:03;-0.30;1.00
20574;DHT22;10445;50.216;7.912;2023-02-28T18:11:54;-0.40;1.00
20574;DHT22;10445;50.216;7.912;2023-02-28T18:14:42;-0.40;1.00
20574;DHT22;10445;50.216;7.912;2023-02-28T18:17:32;-0.30;1.00
20574;DHT22;10445;50.216;7.912;2023-02-28T18:20:20;-0.40;1.00
20574;DHT22;10445;50.216;7.912;2023-02-28T18:23:11;-0.40;1.00
20574;DHT22;10445;50.216;7.912;2023-02-28T18:25:59;-0.40;1.00
20574;DHT22;10445;50.216;7.912;2023-02-28T18:28:48;-0.40;1.00
20574;DHT22;10445;50.216;7.912;2023-02-28T18:31:38;-0.40;1.00
20574;DHT22;10445;50.216;7.912;2023-02-28T18:34:29;-0.40;1.00
20574;DHT22;10445;50.216;7.912;2023-02-28T18:37:28;-0.40;1.00
20574;DHT22;10445;50.216;7.912;2023-02-28T18:40:18;-0.40;1.00
20574;DHT22;10445;50.216;7.912;2023-02-28T18:43:07;-0.50;1.00
20574;DHT22;10445;50.216;7.912;2023-02-28T18:45:57;-0.50;1.00
20574;DHT22;10445;50.216;7.912;2023-02-28T18:49:10;-0.50;1.00
20574;DHT22;10445;50.216;7.912;2023-02-28T18:52:40;-0.60;1.00
20574;DHT22;10445;50.216;7.912;2023-02-28T18:55:34;-0.60;1.00